sensor_id;sensor_type;location;lat;lon;timestamp;temperature;humidity
78611;SHT30;67932;50.474;4.436;2023-06-01T00:01:25;16.32;77.34
78611;SHT30;67932;50.474;4.436;2023-06-01T00:03:51;16.23;77.90
78611;SHT30;67932;50.474;4.436;2023-06-01T00:06:17;16.15;78.45
78611;SHT30;67932;50.474;4.436;2023-06-01T00:08:43;16.22;78.02
78611;SHT30;67932;50.474;4.436;2023-06-01T00:11:10;16.16;78.18
78611;SHT30;67932;50.474;4.436;2023-06-01T00:13:36;16.09;78.50
78611;SHT30;67932;50.474;4.436;2023-06-01T00:16:02;15.96;78.91
78611;SHT30;67932;50.474;4.436;2023-06-01T00:18:28;15.92;79.13
78611;SHT30;67932;50.474;4.436;2023-06-01T00:20:55;15.85;79.33
78611;SHT30;67932;50.474;4.436;2023-06-01T00:23:21;15.88;79.29
78611;SHT30;67932;50.474;4.436;2023-06-01T00:25:48;15.86;79.06
78611;SHT30;67932;50.474;4.436;2023-06-01T00:28:14;15.84;79.20
78611;SHT30;67932;50.474;4.436;2023-06-01T00:30:40;15.84;79.19
78611;SHT30;67932;50.474;4.436;2023-06-01T00:33:07;15.77;79.36
78611;SHT30;67932;50.474;4.436;2023-06-01T00:35:33;15.77;79.36
78611;SHT30;67932;50.474;4.436;2023-06-01T00:37:59;15.72;79.38
78611;SHT30;67932;50.474;4.436;2023-06-01T00:40:25;15.68;79.54
78611;SHT30;67932;50.474;4.436;2023-06-01T00:42:51;15.68;79.46
78611;SHT30;67932;50.474;4.436;2023-06-01T00:45:19;15.69;79.30
78611;SHT30;67932;50.474;4.436;2023-06-01T00:47:46;15.59;79.64
78611;SHT30;67932;50.474;4.436;2023-06-01T00:50:13;15.58;79.67
78611;SHT30;67932;50.474;4.436;2023-06-01T00:52:39;15.52;79.71
78611;SHT30;67932;50.474;4.436;2023-06-01T00:55:07;15.52;79.67
78611;SHT30;67932;50.474;4.436;2023-06-01T00:57:34;15.45;79.83
78611;SHT30;67932;50.474;4.436;2023-06-01T01:00:02;15.40;79.94
78611;SHT30;67932;50.474;4.436;2023-06-01T01:02:36;15.32;80.28
78611;SHT30;67932;50.474;4.436;2023-06-01T01:05:07;15.27;80.23
78611;SHT30;67932;50.474;4.436;2023-06-01T01:08:07;15.28;80.14
78611;SHT30;67932;50.474;4.436;2023-06-01T01:10:50;15.21;80.33
78611;SHT30;67932;50.474;4.436;2023-06-01T01:13:34;15.23;80.24
78611;SHT30;67932;50.474;4.436;2023-06-01T01:16:26;15.17;80.22
78611;SHT30;67932;50.474;4.436;2023-06-01T01:21:36;15.12;80.24
78611;SHT30;67932;50.474;4.436;2023-06-01T01:27:30;15.12;80.20
78611;SHT30;67932;50.474;4.436;2023-06-01T01:30:06;15.06;80.13
78611;SHT30;67932;50.474;4.436;2023-06-01T01:32:34;14.99;80.45
78611;SHT30;67932;50.474;4.436;2023-06-01T01:35:02;15.01;80.29
78611;SHT30;67932;50.474;4.436;2023-06-01T01:37:30;15.00;80.19
78611;SHT30;67932;50.474;4.436;2023-06-01T01:39:58;14.97;80.20
78611;SHT30;67932;50.474;4.436;2023-06-01T01:42:24;15.01;80.02
78611;SHT30;67932;50.474;4.436;2023-06-01T01:44:51;14.89;80.30
78611;SHT30;67932;50.474;4.436;2023-06-01T01:51:11;14.89;80.17
78611;SHT30;67932;50.474;4.436;2023-06-01T01:53:39;14.83;80.17
78611;SHT30;67932;50.474;4.436;2023-06-01T01:56:09;14.80;80.12
78611;SHT30;67932;50.474;4.436;2023-06-01T01:58:36;14.80;80.09
78611;SHT30;67932;50.474;4.436;2023-06-01T02:01:03;14.84;79.82
78611;SHT30;67932;50.474;4.436;2023-06-01T02:03:30;14.80;79.82
78611;SHT30;67932;50.474;4.436;2023-06-01T02:05:56;14.79;79.90
78611;SHT30;67932;50.474;4.436;2023-06-01T02:08:22;14.70;80.05
78611;SHT30;67932;50.474;4.436;2023-06-01T02:10:49;14.75;79.98
78611;SHT30;67932;50.474;4.436;2023-06-01T02:13:15;14.63;80.20
78611;SHT30;67932;50.474;4.436;2023-06-01T02:15:41;14.63;80.34
78611;SHT30;67932;50.474;4.436;2023-06-01T02:18:08;14.62;80.03
78611;SHT30;67932;50.474;4.436;2023-06-01T02:20:34;14.56;80.04
78611;SHT30;67932;50.474;4.436;2023-06-01T02:23:00;14.49;80.41
78611;SHT30;67932;50.474;4.436;2023-06-01T02:25:26;14.33;80.69
78611;SHT30;67932;50.474;4.436;2023-06-01T02:27:53;14.35;80.72
78611;SHT30;67932;50.474;4.436;2023-06-01T02:30:19;14.32;80.78
78611;SHT30;67932;50.474;4.436;2023-06-01T02:32:45;14.30;80.74
78611;SHT30;67932;50.474;4.436;2023-06-01T02:35:14;14.19;81.00
78611;SHT30;67932;50.474;4.436;2023-06-01T02:37:40;14.22;81.05
78611;SHT30;67932;50.474;4.436;2023-06-01T02:40:07;14.25;80.93
78611;SHT30;67932;50.474;4.436;2023-06-01T02:42:38;14.25;80.79
78611;SHT30;67932;50.474;4.436;2023-06-01T02:45:06;14.13;81.14
78611;SHT30;67932;50.474;4.436;2023-06-01T02:47:33;14.16;81.03
78611;SHT30;67932;50.474;4.436;2023-06-01T02:50:00;14.09;81.21
78611;SHT30;67932;50.474;4.436;2023-06-01T02:52:26;14.09;81.07
78611;SHT30;67932;50.474;4.436;2023-06-01T02:54:53;14.06;81.27
78611;SHT30;67932;50.474;4.436;2023-06-01T02:57:19;14.06;81.23
78611;SHT30;67932;50.474;4.436;2023-06-01T02:59:46;14.04;81.27
78611;SHT30;67932;50.474;4.436;2023-06-01T03:02:12;14.02;81.21
78611;SHT30;67932;50.474;4.436;2023-06-01T03:04:38;13.95;81.56
78611;SHT30;67932;50.474;4.436;2023-06-01T03:07:05;13.89;81.73
78611;SHT30;67932;50.474;4.436;2023-06-01T03:09:31;13.91;81.61
78611;SHT30;67932;50.474;4.436;2023-06-01T03:11:58;13.81;81.96
78611;SHT30;67932;50.474;4.436;2023-06-01T03:14:24;13.71;82.26
78611;SHT30;67932;50.474;4.436;2023-06-01T03:16:50;13.64;82.71
78611;SHT30;67932;50.474;4.436;2023-06-01T03:19:16;13.75;82.10
78611;SHT30;67932;50.474;4.436;2023-06-01T03:21:43;13.74;82.15
78611;SHT30;67932;50.474;4.436;2023-06-01T03:24:09;13.71;82.21
78611;SHT30;67932;50.474;4.436;2023-06-01T03:26:37;13.74;82.04
78611;SHT30;67932;50.474;4.436;2023-06-01T03:29:04;13.62;82.46
78611;SHT30;67932;50.474;4.436;2023-06-01T03:31:30;13.60;82.43
78611;SHT30;67932;50.474;4.436;2023-06-01T03:34:01;13.55;82.47
78611;SHT30;67932;50.474;4.436;2023-06-01T03:36:27;13.51;82.66
78611;SHT30;67932;50.474;4.436;2023-06-01T03:38:53;13.53;82.82
78611;SHT30;67932;50.474;4.436;2023-06-01T03:41:20;13.53;82.73
78611;SHT30;67932;50.474;4.436;2023-06-01T03:43:47;13.47;82.64
78611;SHT30;67932;50.474;4.436;2023-06-01T03:46:14;13.41;82.79
78611;SHT30;67932;50.474;4.436;2023-06-01T03:48:40;13.28;83.26
78611;SHT30;67932;50.474;4.436;2023-06-01T03:51:06;13.26;83.26
78611;SHT30;67932;50.474;4.436;2023-06-01T03:53:32;13.34;83.10
78611;SHT30;67932;50.474;4.436;2023-06-01T03:55:59;13.33;83.02
78611;SHT30;67932;50.474;4.436;2023-06-01T03:58:26;13.24;83.22
78611;SHT30;67932;50.474;4.436;2023-06-01T04:00:53;13.31;83.05
78611;SHT30;67932;50.474;4.436;2023-06-01T04:03:20;13.27;83.18
78611;SHT30;67932;50.474;4.436;2023-06-01T04:05:47;13.28;83.05
78611;SHT30;67932;50.474;4.436;2023-06-01T04:08:16;13.34;82.87
78611;SHT30;67932;50.474;4.436;2023-06-01T04:10:45;13.31;82.80
78611;SHT30;67932;50.474;4.436;2023-06-01T04:13:12;13.24;83.07
78611;SHT30;67932;50.474;4.436;2023-06-01T04:15:38;13.21;83.10
78611;SHT30;67932;50.474;4.436;2023-06-01T04:18:04;13.28;82.92
78611;SHT30;67932;50.474;4.436;2023-06-01T04:20:30;13.21;83.12
78611;SHT30;67932;50.474;4.436;2023-06-01T04:22:58;13.26;82.87
78611;SHT30;67932;50.474;4.436;2023-06-01T04:25:24;13.23;83.08
78611;SHT30;67932;50.474;4.436;2023-06-01T04:27:51;13.31;82.73
78611;SHT30;67932;50.474;4.436;2023-06-01T04:30:18;13.24;82.91
78611;SHT30;67932;50.474;4.436;2023-06-01T04:32:46;13.21;82.79
78611;SHT30;67932;50.474;4.436;2023-06-01T04:35:14;13.18;83.00
78611;SHT30;67932;50.474;4.436;2023-06-01T04:37:41;13.11;83.04
78611;SHT30;67932;50.474;4.436;2023-06-01T04:40:09;13.18;82.83
78611;SHT30;67932;50.474;4.436;2023-06-01T04:42:45;13.31;82.51
78611;SHT30;67932;50.474;4.436;2023-06-01T04:45:15;13.23;82.61
78611;SHT30;67932;50.474;4.436;2023-06-01T04:47:41;13.23;82.62
78611;SHT30;67932;50.474;4.436;2023-06-01T04:50:12;13.31;82.20
78611;SHT30;67932;50.474;4.436;2023-06-01T04:52:40;13.33;82.20
78611;SHT30;67932;50.474;4.436;2023-06-01T04:55:07;13.33;82.03
78611;SHT30;67932;50.474;4.436;2023-06-01T04:57:34;13.28;82.25
78611;SHT30;67932;50.474;4.436;2023-06-01T05:00:05;13.28;82.40
78611;SHT30;67932;50.474;4.436;2023-06-01T05:02:38;13.33;82.31
78611;SHT30;67932;50.474;4.436;2023-06-01T05:05:08;13.47;81.73
78611;SHT30;67932;50.474;4.436;2023-06-01T05:07:38;13.53;81.41
78611;SHT30;67932;50.474;4.436;2023-06-01T05:10:09;13.40;81.86
78611;SHT30;67932;50.474;4.436;2023-06-01T05:12:36;13.41;81.87
78611;SHT30;67932;50.474;4.436;2023-06-01T05:15:07;13.43;82.03
78611;SHT30;67932;50.474;4.436;2023-06-01T05:17:34;13.38;81.80
78611;SHT30;67932;50.474;4.436;2023-06-01T05:20:00;13.46;81.75
78611;SHT30;67932;50.474;4.436;2023-06-01T05:22:27;13.53;81.37
78611;SHT30;67932;50.474;4.436;2023-06-01T05:24:53;13.54;81.31
78611;SHT30;67932;50.474;4.436;2023-06-01T05:27:19;13.51;81.37
78611;SHT30;67932;50.474;4.436;2023-06-01T05:29:47;13.48;81.50
78611;SHT30;67932;50.474;4.436;2023-06-01T05:32:13;13.54;81.27
78611;SHT30;67932;50.474;4.436;2023-06-01T05:34:39;13.54;81.36
78611;SHT30;67932;50.474;4.436;2023-06-01T05:37:06;13.48;81.43
78611;SHT30;67932;50.474;4.436;2023-06-01T05:39:32;13.70;80.97
78611;SHT30;67932;50.474;4.436;2023-06-01T05:41:58;13.70;80.70
78611;SHT30;67932;50.474;4.436;2023-06-01T05:44:25;13.64;80.77
78611;SHT30;67932;50.474;4.436;2023-06-01T05:46:52;13.70;81.10
78611;SHT30;67932;50.474;4.436;2023-06-01T05:49:19;13.74;81.06
78611;SHT30;67932;50.474;4.436;2023-06-01T05:51:46;13.75;80.92
78611;SHT30;67932;50.474;4.436;2023-06-01T05:54:13;13.82;80.83
78611;SHT30;67932;50.474;4.436;2023-06-01T05:56:39;13.86;80.47
78611;SHT30;67932;50.474;4.436;2023-06-01T05:59:07;14.04;79.52
78611;SHT30;67932;50.474;4.436;2023-06-01T06:01:33;13.97;79.86
78611;SHT30;67932;50.474;4.436;2023-06-01T06:03:59;13.95;80.16
78611;SHT30;67932;50.474;4.436;2023-06-01T06:06:26;14.01;79.94
78611;SHT30;67932;50.474;4.436;2023-06-01T06:08:53;14.06;79.69
78611;SHT30;67932;50.474;4.436;2023-06-01T06:14:24;14.32;79.26
78611;SHT30;67932;50.474;4.436;2023-06-01T06:16:50;14.39;78.78
78611;SHT30;67932;50.474;4.436;2023-06-01T06:19:17;14.52;78.42
78611;SHT30;67932;50.474;4.436;2023-06-01T06:21:43;14.55;78.38
78611;SHT30;67932;50.474;4.436;2023-06-01T06:24:09;14.46;78.56
78611;SHT30;67932;50.474;4.436;2023-06-01T06:26:58;14.35;78.40
78611;SHT30;67932;50.474;4.436;2023-06-01T06:29:25;14.30;78.73
78611;SHT30;67932;50.474;4.436;2023-06-01T06:31:51;14.23;78.94
78611;SHT30;67932;50.474;4.436;2023-06-01T06:34:17;14.22;79.02
78611;SHT30;67932;50.474;4.436;2023-06-01T06:36:43;14.28;78.87
78611;SHT30;67932;50.474;4.436;2023-06-01T06:39:10;14.37;78.78
78611;SHT30;67932;50.474;4.436;2023-06-01T06:41:36;14.43;78.57
78611;SHT30;67932;50.474;4.436;2023-06-01T06:44:03;14.55;78.48
78611;SHT30;67932;50.474;4.436;2023-06-01T06:46:29;14.45;78.28
78611;SHT30;67932;50.474;4.436;2023-06-01T06:48:55;14.40;78.33
78611;SHT30;67932;50.474;4.436;2023-06-01T06:51:21;14.55;78.18
78611;SHT30;67932;50.474;4.436;2023-06-01T06:53:48;14.59;77.68
78611;SHT30;67932;50.474;4.436;2023-06-01T06:56:14;14.63;78.32
78611;SHT30;67932;50.474;4.436;2023-06-01T06:58:41;14.84;77.40
78611;SHT30;67932;50.474;4.436;2023-06-01T07:01:08;14.73;77.44
78611;SHT30;67932;50.474;4.436;2023-06-01T07:03:34;14.84;76.89
78611;SHT30;67932;50.474;4.436;2023-06-01T07:06:01;14.80;77.22
78611;SHT30;67932;50.474;4.436;2023-06-01T07:08:27;14.84;76.78
78611;SHT30;67932;50.474;4.436;2023-06-01T07:10:54;14.84;76.88
78611;SHT30;67932;50.474;4.436;2023-06-01T07:13:22;14.83;77.31
78611;SHT30;67932;50.474;4.436;2023-06-01T07:15:49;14.89;76.99
78611;SHT30;67932;50.474;4.436;2023-06-01T07:18:15;14.87;76.76
78611;SHT30;67932;50.474;4.436;2023-06-01T07:20:41;14.91;76.60
78611;SHT30;67932;50.474;4.436;2023-06-01T07:23:08;14.96;76.65
78611;SHT30;67932;50.474;4.436;2023-06-01T07:25:34;14.91;76.42
78611;SHT30;67932;50.474;4.436;2023-06-01T07:28:01;14.80;76.52
78611;SHT30;67932;50.474;4.436;2023-06-01T07:30:33;14.63;77.15
78611;SHT30;67932;50.474;4.436;2023-06-01T07:33:00;14.66;77.30
78611;SHT30;67932;50.474;4.436;2023-06-01T07:35:27;14.86;76.46
78611;SHT30;67932;50.474;4.436;2023-06-01T07:37:54;15.08;76.32
78611;SHT30;67932;50.474;4.436;2023-06-01T07:40:21;15.24;75.91
78611;SHT30;67932;50.474;4.436;2023-06-01T07:42:47;15.37;75.34
78611;SHT30;67932;50.474;4.436;2023-06-01T07:45:14;15.34;75.38
78611;SHT30;67932;50.474;4.436;2023-06-01T07:47:41;15.31;75.62
78611;SHT30;67932;50.474;4.436;2023-06-01T07:50:07;15.24;76.01
78611;SHT30;67932;50.474;4.436;2023-06-01T07:52:37;15.24;75.79
78611;SHT30;67932;50.474;4.436;2023-06-01T07:55:05;15.32;75.81
78611;SHT30;67932;50.474;4.436;2023-06-01T07:57:34;15.37;75.98
78611;SHT30;67932;50.474;4.436;2023-06-01T08:00:01;15.28;75.46
78611;SHT30;67932;50.474;4.436;2023-06-01T08:02:27;15.24;75.25
78611;SHT30;67932;50.474;4.436;2023-06-01T08:04:53;15.28;75.11
78611;SHT30;67932;50.474;4.436;2023-06-01T08:07:23;15.26;75.94
78611;SHT30;67932;50.474;4.436;2023-06-01T08:09:54;15.27;75.64
78611;SHT30;67932;50.474;4.436;2023-06-01T08:12:20;15.41;75.36
78611;SHT30;67932;50.474;4.436;2023-06-01T08:14:48;15.45;74.67
78611;SHT30;67932;50.474;4.436;2023-06-01T08:17:15;15.32;74.89
78611;SHT30;67932;50.474;4.436;2023-06-01T08:19:41;15.27;75.55
78611;SHT30;67932;50.474;4.436;2023-06-01T08:22:08;15.30;75.94
78611;SHT30;67932;50.474;4.436;2023-06-01T08:24:34;15.48;75.64
78611;SHT30;67932;50.474;4.436;2023-06-01T08:27:02;15.54;75.60
78611;SHT30;67932;50.474;4.436;2023-06-01T08:29:31;15.69;75.36
78611;SHT30;67932;50.474;4.436;2023-06-01T08:31:57;15.59;75.15
78611;SHT30;67932;50.474;4.436;2023-06-01T08:34:25;15.52;75.39
78611;SHT30;67932;50.474;4.436;2023-06-01T08:36:51;15.61;75.32
78611;SHT30;67932;50.474;4.436;2023-06-01T08:39:23;15.75;75.08
78611;SHT30;67932;50.474;4.436;2023-06-01T08:44:41;15.77;74.64
78611;SHT30;67932;50.474;4.436;2023-06-01T08:47:08;15.89;74.28
78611;SHT30;67932;50.474;4.436;2023-06-01T08:49:36;15.88;74.12
78611;SHT30;67932;50.474;4.436;2023-06-01T08:52:07;15.96;73.41
78611;SHT30;67932;50.474;4.436;2023-06-01T08:54:34;16.12;73.13
78611;SHT30;67932;50.474;4.436;2023-06-01T08:57:03;16.06;73.32
78611;SHT30;67932;50.474;4.436;2023-06-01T08:59:33;16.22;73.02
78611;SHT30;67932;50.474;4.436;2023-06-01T09:02:00;16.27;73.32
78611;SHT30;67932;50.474;4.436;2023-06-01T09:09:59;16.50;70.68
78611;SHT30;67932;50.474;4.436;2023-06-01T09:12:28;16.43;71.39
78611;SHT30;67932;50.474;4.436;2023-06-01T09:17:47;16.36;70.82
78611;SHT30;67932;50.474;4.436;2023-06-01T09:20:25;16.32;71.26
78611;SHT30;67932;50.474;4.436;2023-06-01T09:22:51;16.46;70.93
78611;SHT30;67932;50.474;4.436;2023-06-01T09:25:24;16.47;71.03
78611;SHT30;67932;50.474;4.436;2023-06-01T09:27:53;16.67;70.97
78611;SHT30;67932;50.474;4.436;2023-06-01T09:30:21;16.77;71.22
78611;SHT30;67932;50.474;4.436;2023-06-01T09:32:50;16.83;70.97
78611;SHT30;67932;50.474;4.436;2023-06-01T09:35:44;16.95;70.87
78611;SHT30;67932;50.474;4.436;2023-06-01T09:38:11;16.88;70.82
78611;SHT30;67932;50.474;4.436;2023-06-01T09:40:39;17.06;71.35
78611;SHT30;67932;50.474;4.436;2023-06-01T09:43:22;17.23;70.14
78611;SHT30;67932;50.474;4.436;2023-06-01T09:46:05;17.28;68.45
78611;SHT30;67932;50.474;4.436;2023-06-01T09:48:35;17.32;68.84
78611;SHT30;67932;50.474;4.436;2023-06-01T09:51:04;17.39;67.54
78611;SHT30;67932;50.474;4.436;2023-06-01T09:53:41;17.48;68.16
78611;SHT30;67932;50.474;4.436;2023-06-01T09:56:08;17.65;67.93
78611;SHT30;67932;50.474;4.436;2023-06-01T09:58:43;17.76;68.08
78611;SHT30;67932;50.474;4.436;2023-06-01T10:01:10;17.68;67.99
78611;SHT30;67932;50.474;4.436;2023-06-01T10:03:42;17.55;67.80
78611;SHT30;67932;50.474;4.436;2023-06-01T10:06:12;17.44;68.44
78611;SHT30;67932;50.474;4.436;2023-06-01T10:08:38;17.46;67.27
78611;SHT30;67932;50.474;4.436;2023-06-01T10:11:06;17.42;66.85
78611;SHT30;67932;50.474;4.436;2023-06-01T10:13:35;17.42;66.78
78611;SHT30;67932;50.474;4.436;2023-06-01T10:16:02;17.55;66.80
78611;SHT30;67932;50.474;4.436;2023-06-01T10:18:31;17.65;66.16
78611;SHT30;67932;50.474;4.436;2023-06-01T10:20:58;17.82;66.43
78611;SHT30;67932;50.474;4.436;2023-06-01T10:23:25;17.96;65.92
78611;SHT30;67932;50.474;4.436;2023-06-01T10:25:53;17.95;64.85
78611;SHT30;67932;50.474;4.436;2023-06-01T10:28:20;18.09;64.62
78611;SHT30;67932;50.474;4.436;2023-06-01T10:30:48;18.25;64.11
78611;SHT30;67932;50.474;4.436;2023-06-01T10:33:52;18.28;63.47
78611;SHT30;67932;50.474;4.436;2023-06-01T10:36:19;18.23;63.71
78611;SHT30;67932;50.474;4.436;2023-06-01T10:38:45;18.44;63.48
78611;SHT30;67932;50.474;4.436;2023-06-01T10:41:45;18.59;63.12
78611;SHT30;67932;50.474;4.436;2023-06-01T10:47:05;18.88;61.95
78611;SHT30;67932;50.474;4.436;2023-06-01T10:52:35;20.43;57.87
78611;SHT30;67932;50.474;4.436;2023-06-01T10:57:37;20.91;55.02
78611;SHT30;67932;50.474;4.436;2023-06-01T11:00:10;20.68;55.60
78611;SHT30;67932;50.474;4.436;2023-06-01T11:03:03;20.29;57.39
78611;SHT30;67932;50.474;4.436;2023-06-01T11:05:47;20.14;58.93
78611;SHT30;67932;50.474;4.436;2023-06-01T11:10:55;19.82;60.05
78611;SHT30;67932;50.474;4.436;2023-06-01T11:13:39;19.83;58.67
78611;SHT30;67932;50.474;4.436;2023-06-01T11:18:46;19.83;59.97
78611;SHT30;67932;50.474;4.436;2023-06-01T11:21:19;19.75;59.04
78611;SHT30;67932;50.474;4.436;2023-06-01T11:23:50;20.03;57.78
78611;SHT30;67932;50.474;4.436;2023-06-01T11:26:22;20.33;56.56
78611;SHT30;67932;50.474;4.436;2023-06-01T11:28:51;20.22;57.13
78611;SHT30;67932;50.474;4.436;2023-06-01T11:31:19;20.13;56.69
78611;SHT30;67932;50.474;4.436;2023-06-01T11:33:51;19.87;57.16
78611;SHT30;67932;50.474;4.436;2023-06-01T11:36:24;19.70;56.92
78611;SHT30;67932;50.474;4.436;2023-06-01T11:38:52;19.80;56.08
78611;SHT30;67932;50.474;4.436;2023-06-01T11:41:31;19.86;55.90
78611;SHT30;67932;50.474;4.436;2023-06-01T11:43:58;20.08;56.88
78611;SHT30;67932;50.474;4.436;2023-06-01T11:46:25;20.33;55.85
78611;SHT30;67932;50.474;4.436;2023-06-01T11:49:03;20.46;55.04
78611;SHT30;67932;50.474;4.436;2023-06-01T11:51:38;20.87;53.09
78611;SHT30;67932;50.474;4.436;2023-06-01T11:54:05;21.85;50.50
78611;SHT30;67932;50.474;4.436;2023-06-01T11:56:34;22.97;47.72
78611;SHT30;67932;50.474;4.436;2023-06-01T11:59:05;23.43;45.66
78611;SHT30;67932;50.474;4.436;2023-06-01T12:01:41;22.94;47.16
78611;SHT30;67932;50.474;4.436;2023-06-01T12:04:16;22.23;48.01
78611;SHT30;67932;50.474;4.436;2023-06-01T12:06:42;21.81;48.23
78611;SHT30;67932;50.474;4.436;2023-06-01T12:09:09;21.65;48.38
78611;SHT30;67932;50.474;4.436;2023-06-01T12:11:36;22.07;47.43
78611;SHT30;67932;50.474;4.436;2023-06-01T12:14:04;22.32;46.17
78611;SHT30;67932;50.474;4.436;2023-06-01T12:16:51;22.61;46.16
78611;SHT30;67932;50.474;4.436;2023-06-01T12:19:17;22.91;45.02
78611;SHT30;67932;50.474;4.436;2023-06-01T12:21:48;23.31;43.72
78611;SHT30;67932;50.474;4.436;2023-06-01T12:24:15;23.46;41.46
78611;SHT30;67932;50.474;4.436;2023-06-01T12:26:42;23.77;40.70
78611;SHT30;67932;50.474;4.436;2023-06-01T12:29:09;24.26;38.63
78611;SHT30;67932;50.474;4.436;2023-06-01T12:31:35;25.19;37.53
78611;SHT30;67932;50.474;4.436;2023-06-01T12:34:02;25.75;37.53
78611;SHT30;67932;50.474;4.436;2023-06-01T12:36:33;26.50;35.87
78611;SHT30;67932;50.474;4.436;2023-06-01T12:39:02;26.88;36.13
78611;SHT30;67932;50.474;4.436;2023-06-01T12:44:55;27.99;33.68
78611;SHT30;67932;50.474;4.436;2023-06-01T12:47:22;28.12;33.07
78611;SHT30;67932;50.474;4.436;2023-06-01T12:50:09;27.76;33.21
78611;SHT30;67932;50.474;4.436;2023-06-01T12:52:37;28.02;32.92
78611;SHT30;67932;50.474;4.436;2023-06-01T12:55:04;28.48;31.45
78611;SHT30;67932;50.474;4.436;2023-06-01T12:57:32;28.18;31.97
78611;SHT30;67932;50.474;4.436;2023-06-01T12:59:59;28.28;31.78
78611;SHT30;67932;50.474;4.436;2023-06-01T13:02:26;28.34;31.26
78611;SHT30;67932;50.474;4.436;2023-06-01T13:04:52;28.55;31.47
78611;SHT30;67932;50.474;4.436;2023-06-01T13:07:23;29.12;30.45
78611;SHT30;67932;50.474;4.436;2023-06-01T13:09:49;29.49;28.46
78611;SHT30;67932;50.474;4.436;2023-06-01T13:12:16;29.29;29.26
78611;SHT30;67932;50.474;4.436;2023-06-01T13:14:43;28.78;30.46
78611;SHT30;67932;50.474;4.436;2023-06-01T13:17:11;29.42;30.33
78611;SHT30;67932;50.474;4.436;2023-06-01T13:19:38;29.35;30.27
78611;SHT30;67932;50.474;4.436;2023-06-01T13:22:34;29.36;29.51
78611;SHT30;67932;50.474;4.436;2023-06-01T13:28:27;29.12;29.85
78611;SHT30;67932;50.474;4.436;2023-06-01T13:30:54;29.58;29.04
78611;SHT30;67932;50.474;4.436;2023-06-01T13:33:40;29.53;29.50
78611;SHT30;67932;50.474;4.436;2023-06-01T13:36:07;29.55;29.15
78611;SHT30;67932;50.474;4.436;2023-06-01T13:38:35;29.28;29.71
78611;SHT30;67932;50.474;4.436;2023-06-01T13:41:04;29.04;29.89
78611;SHT30;67932;50.474;4.436;2023-06-01T13:43:33;29.29;29.54
78611;SHT30;67932;50.474;4.436;2023-06-01T13:46:01;29.15;29.41
78611;SHT30;67932;50.474;4.436;2023-06-01T13:49:00;29.04;29.64
78611;SHT30;67932;50.474;4.436;2023-06-01T13:51:31;29.55;29.51
78611;SHT30;67932;50.474;4.436;2023-06-01T13:54:33;30.09;28.58
78611;SHT30;67932;50.474;4.436;2023-06-01T13:57:06;30.17;28.38
78611;SHT30;67932;50.474;4.436;2023-06-01T13:59:35;29.42;29.13
78611;SHT30;67932;50.474;4.436;2023-06-01T14:02:47;29.55;29.10
78611;SHT30;67932;50.474;4.436;2023-06-01T14:05:30;29.79;28.32
78611;SHT30;67932;50.474;4.436;2023-06-01T14:08:18;29.99;28.26
78611;SHT30;67932;50.474;4.436;2023-06-01T14:10:46;30.07;27.96
78611;SHT30;67932;50.474;4.436;2023-06-01T14:13:13;30.12;28.15
78611;SHT30;67932;50.474;4.436;2023-06-01T14:15:45;29.84;28.52
78611;SHT30;67932;50.474;4.436;2023-06-01T14:25:12;29.97;28.55
78611;SHT30;67932;50.474;4.436;2023-06-01T14:27:39;30.18;28.08
78611;SHT30;67932;50.474;4.436;2023-06-01T14:30:07;30.37;26.63
78611;SHT30;67932;50.474;4.436;2023-06-01T14:32:33;30.49;26.12
78611;SHT30;67932;50.474;4.436;2023-06-01T14:35:03;30.17;27.28
78611;SHT30;67932;50.474;4.436;2023-06-01T14:37:30;30.23;27.70
78611;SHT30;67932;50.474;4.436;2023-06-01T14:39:57;30.06;27.55
78611;SHT30;67932;50.474;4.436;2023-06-01T14:42:25;29.82;27.58
78611;SHT30;67932;50.474;4.436;2023-06-01T14:45:00;29.70;26.72
78611;SHT30;67932;50.474;4.436;2023-06-01T14:47:29;30.00;26.99
78611;SHT30;67932;50.474;4.436;2023-06-01T14:49:55;30.36;27.60
78611;SHT30;67932;50.474;4.436;2023-06-01T14:52:22;30.67;27.44
78611;SHT30;67932;50.474;4.436;2023-06-01T14:54:48;30.41;28.25
78611;SHT30;67932;50.474;4.436;2023-06-01T14:57:15;30.41;28.36
78611;SHT30;67932;50.474;4.436;2023-06-01T14:59:42;29.90;29.01
78611;SHT30;67932;50.474;4.436;2023-06-01T15:02:10;29.43;29.39
78611;SHT30;67932;50.474;4.436;2023-06-01T15:04:36;30.54;28.53
78611;SHT30;67932;50.474;4.436;2023-06-01T15:07:02;30.45;29.07
78611;SHT30;67932;50.474;4.436;2023-06-01T15:09:29;30.17;29.09
78611;SHT30;67932;50.474;4.436;2023-06-01T15:11:55;29.99;28.36
78611;SHT30;67932;50.474;4.436;2023-06-01T15:14:22;30.34;28.68
78611;SHT30;67932;50.474;4.436;2023-06-01T15:16:49;30.64;27.62
78611;SHT30;67932;50.474;4.436;2023-06-01T15:19:15;30.41;27.44
78611;SHT30;67932;50.474;4.436;2023-06-01T15:21:42;30.21;27.10
78611;SHT30;67932;50.474;4.436;2023-06-01T15:24:08;30.45;26.84
78611;SHT30;67932;50.474;4.436;2023-06-01T15:26:35;30.20;27.48
78611;SHT30;67932;50.474;4.436;2023-06-01T15:29:01;29.48;27.92
78611;SHT30;67932;50.474;4.436;2023-06-01T15:31:28;29.32;28.44
78611;SHT30;67932;50.474;4.436;2023-06-01T15:33:54;29.33;28.55
78611;SHT30;67932;50.474;4.436;2023-06-01T15:36:20;29.56;28.25
78611;SHT30;67932;50.474;4.436;2023-06-01T15:38:47;29.62;28.13
78611;SHT30;67932;50.474;4.436;2023-06-01T15:41:13;29.77;27.81
78611;SHT30;67932;50.474;4.436;2023-06-01T15:43:42;29.84;27.51
78611;SHT30;67932;50.474;4.436;2023-06-01T15:46:08;30.00;26.85
78611;SHT30;67932;50.474;4.436;2023-06-01T15:48:34;30.02;26.77
78611;SHT30;67932;50.474;4.436;2023-06-01T15:51:05;29.48;26.83
78611;SHT30;67932;50.474;4.436;2023-06-01T15:53:32;29.22;27.59
78611;SHT30;67932;50.474;4.436;2023-06-01T15:55:58;28.78;27.32
78611;SHT30;67932;50.474;4.436;2023-06-01T15:58:25;28.71;27.72
78611;SHT30;67932;50.474;4.436;2023-06-01T16:00:54;28.90;28.51
78611;SHT30;67932;50.474;4.436;2023-06-01T16:03:20;29.14;28.40
78611;SHT30;67932;50.474;4.436;2023-06-01T16:05:48;29.28;28.35
78611;SHT30;67932;50.474;4.436;2023-06-01T16:08:14;29.56;28.71
78611;SHT30;67932;50.474;4.436;2023-06-01T16:10:41;29.16;28.83
78611;SHT30;67932;50.474;4.436;2023-06-01T16:13:08;29.16;29.44
78611;SHT30;67932;50.474;4.436;2023-06-01T16:15:35;28.77;30.14
78611;SHT30;67932;50.474;4.436;2023-06-01T16:18:03;28.77;30.50
78611;SHT30;67932;50.474;4.436;2023-06-01T16:20:32;28.71;30.46
78611;SHT30;67932;50.474;4.436;2023-06-01T16:22:59;28.78;30.41
78611;SHT30;67932;50.474;4.436;2023-06-01T16:25:26;28.74;30.97
78611;SHT30;67932;50.474;4.436;2023-06-01T16:27:53;27.80;31.92
78611;SHT30;67932;50.474;4.436;2023-06-01T16:30:20;27.04;33.19
78611;SHT30;67932;50.474;4.436;2023-06-01T16:32:47;26.54;34.15